Time;durP1;ratioP1;P1;durP2;ratioP2;P2;SDS_P1;SDS_P2;PMS_P1;PMS_P2;Temp;Humidity;BMP_temperature;BMP_pressure;BME280_temperature;BME280_humidity;BME280_pressure;Samples;Min_cycle;Max_cycle;Signal;HPM_P1;HPM_P2
2024/04/28 00:02:18;;;;;;;4.15;3.10;;;;;;;11.08;74.15;99910.13;6252232;22;19996;-93
2024/04/28 00:04:43;;;;;;;6.85;3.38;;;;;;;11.17;73.41;99917.72;6253501;22;20016;-91
2024/04/28 00:07:09;;;;;;;5.05;3.22;;;;;;;11.17;74.29;99915.84;6252849;22;20304;-93
2024/04/28 00:09:38;;;;;;;3.70;3.10;;;;;;;10.94;74.54;99903.56;6252191;22;20007;-93
2024/04/28 00:12:06;;;;;;;6.45;3.60;;;;;;;10.88;74.87;99902.69;6252150;22;20003;-92
2024/04/28 00:14:32;;;;;;;4.90;2.80;;;;;;;11.00;74.88;99921.38;6332908;22;20000;-93
2024/04/28 00:16:59;;;;;;;7.88;4.15;;;;;;;10.84;74.90;99887.31;6253611;22;19999;-93
2024/04/28 00:19:24;;;;;;;7.18;3.10;;;;;;;10.94;74.85;99905.44;6253718;22;19992;-94
2024/04/28 00:21:50;;;;;;;5.05;2.85;;;;;;;10.81;74.58;99899.41;6253289;22;20291;-92
2024/04/28 00:24:16;;;;;;;7.22;3.22;;;;;;;10.92;75.05;99906.50;6333640;22;20003;-94
2024/04/28 00:26:41;;;;;;;9.20;3.10;;;;;;;10.95;74.50;99905.16;6295980;22;20003;-93
2024/04/28 00:29:07;;;;;;;7.05;3.58;;;;;;;10.92;74.65;99919.97;6254169;22;20003;-91
2024/04/28 00:31:32;;;;;;;5.10;2.90;;;;;;;10.64;75.07;99893.31;6253995;22;20003;-94
2024/04/28 00:33:59;;;;;;;8.48;3.05;;;;;;;10.72;75.38;99917.91;6253762;22;20000;-95
2024/04/28 00:36:24;;;;;;;4.50;3.33;;;;;;;10.84;74.75;99931.22;6295954;22;20006;-94
2024/04/28 00:38:50;;;;;;;4.97;3.13;;;;;;;10.75;74.73;99916.59;6254457;22;19999;-93
2024/04/28 00:41:16;;;;;;;5.13;2.78;;;;;;;10.76;73.93;99920.09;6253958;22;20300;-94
2024/04/28 00:43:42;;;;;;;3.75;2.85;;;;;;;10.75;74.76;99908.53;6255020;22;19996;-93
2024/04/28 00:49:26;;;;;;;5.38;3.20;;;;;;;10.66;74.83;99918.91;6336965;22;19992;-95
2024/04/28 00:51:52;;;;;;;4.53;2.80;;;;;;;10.52;74.74;99904.25;6256763;22;20464;-94
2024/04/28 00:54:17;;;;;;;5.35;3.28;;;;;;;10.58;74.85;99908.59;6294953;22;19996;-94
2024/04/28 00:56:43;;;;;;;4.72;2.90;;;;;;;10.51;75.32;99919.59;6339689;22;19996;-95
2024/04/28 00:59:09;;;;;;;4.65;2.72;;;;;;;10.38;75.49;99890.41;6257408;22;20011;-94
2024/04/28 01:01:34;;;;;;;6.63;3.10;;;;;;;10.64;74.81;99942.59;6255305;22;19992;-93
2024/04/28 01:04:00;;;;;;;3.60;2.80;;;;;;;10.63;74.98;99950.97;6254752;22;20457;-94
2024/04/28 01:06:29;;;;;;;6.30;2.85;;;;;;;10.42;74.54;99929.22;6254300;22;19996;-93
2024/04/28 01:08:54;;;;;;;6.43;3.03;;;;;;;10.21;75.28;99914.69;6255408;22;19988;-93
2024/04/28 01:11:20;;;;;;;9.52;3.13;;;;;;;10.27;75.32;99935.22;6255431;22;19995;-94
2024/04/28 01:13:45;;;;;;;3.97;2.85;;;;;;;10.20;75.31;99917.63;6254807;22;20008;-94
2024/04/28 01:16:14;;;;;;;6.70;3.17;;;;;;;10.21;75.15;99925.47;6254266;22;19996;-94
2024/04/28 01:18:40;;;;;;;6.90;2.88;;;;;;;10.17;74.98;99912.75;6335536;22;19992;-94
2024/04/28 01:21:05;;;;;;;4.22;2.72;;;;;;;10.18;74.53;99931.31;6254096;22;20007;-91
2024/04/28 01:23:32;;;;;;;4.97;2.97;;;;;;;10.01;75.50;99933.28;6254179;22;20396;-92
2024/04/28 01:26:01;;;;;;;6.60;3.92;;;;;;;10.15;75.59;99952.53;6294061;22;20396;-95
2024/04/28 01:28:26;;;;;;;6.10;3.28;;;;;;;10.15;75.93;99952.53;6257026;22;20002;-93
2024/04/28 01:30:52;;;;;;;3.25;2.83;;;;;;;9.89;76.26;99920.75;6255137;22;20284;-94
2024/04/28 01:33:17;;;;;;;5.72;3.20;;;;;;;9.90;75.85;99927.78;6334567;22;20003;-94
2024/04/28 01:35:43;;;;;;;8.65;3.15;;;;;;;9.85;75.93;99921.53;6254044;22;20000;-95
2024/04/28 01:38:09;;;;;;;4.68;3.03;;;;;;;9.79;76.61;99925.22;6255055;22;20004;-95
2024/04/28 01:40:34;;;;;;;5.25;3.47;;;;;;;9.68;76.35;99908.13;6334961;22;20300;-94
2024/04/28 01:43:00;;;;;;;5.07;3.00;;;;;;;9.69;76.54;99921.34;6254601;22;20301;-93
2024/04/28 01:45:26;;;;;;;4.20;3.20;;;;;;;9.76;76.55;99931.91;6253428;22;20366;-94
2024/04/28 01:47:51;;;;;;;6.90;3.38;;;;;;;9.80;76.50;99945.69;6254760;22;20003;-93
2024/04/28 01:50:17;;;;;;;8.85;3.30;;;;;;;9.57;76.72;99928.69;6254136;22;20008;-93
2024/04/28 01:52:43;;;;;;;6.75;3.38;;;;;;;9.59;76.76;99934.63;6253933;22;20296;-93
2024/04/28 01:55:08;;;;;;;6.20;3.35;;;;;;;9.67;76.79;99949.50;6253742;22;20000;-94
2024/04/28 01:57:35;;;;;;;9.18;3.72;;;;;;;9.52;77.29;99934.00;6253770;22;19992;-93
2024/04/28 02:00:01;;;;;;;7.70;3.92;;;;;;;9.50;77.02;99930.72;6335635;22;19996;-93
2024/04/28 02:02:26;;;;;;;5.47;3.90;;;;;;;9.61;76.87;99945.16;6254791;22;19995;-93
2024/04/28 02:04:52;;;;;;;5.45;3.78;;;;;;;9.61;76.93;99942.47;6253317;22;19992;-94
2024/04/28 02:07:18;;;;;;;13.82;8.73;;;;;;;9.58;76.70;99953.69;6256900;22;19991;-94
2024/04/28 02:09:44;;;;;;;6.90;4.35;;;;;;;9.44;76.64;99934.41;6262060;22;20003;-92
2024/04/28 02:12:15;;;;;;;6.57;4.05;;;;;;;9.41;77.22;99942.97;6303586;22;19991;-94
2024/04/28 02:14:41;;;;;;;7.55;4.10;;;;;;;9.25;77.63;99923.13;6263302;22;20006;-92
2024/04/28 02:17:07;;;;;;;6.78;4.30;;;;;;;9.30;77.18;99933.97;6262411;22;19995;-92
2024/04/28 02:19:32;;;;;;;5.70;4.30;;;;;;;9.41;77.12;99948.34;6300495;22;20007;-93
2024/04/28 02:21:58;;;;;;;8.48;4.30;;;;;;;9.30;77.37;99932.06;6263165;22;20010;-93
2024/04/28 02:24:24;;;;;;;6.82;4.32;;;;;;;9.39;77.35;99961.22;6262646;22;19999;-93
2024/04/28 02:26:49;;;;;;;9.80;4.65;;;;;;;9.25;77.25;99948.09;6262699;22;19995;-93
2024/04/28 02:29:15;;;;;;;6.30;4.15;;;;;;;9.20;77.55;99952.59;6262294;22;19988;-93
2024/04/28 02:31:40;;;;;;;7.45;4.20;;;;;;;9.25;77.54;99952.69;6262789;22;20026;-93
2024/04/28 02:34:06;;;;;;;5.85;3.92;;;;;;;9.08;77.29;99950.81;6262124;22;20006;-93
2024/04/28 02:36:32;;;;;;;6.45;3.78;;;;;;;9.26;77.34;99975.81;6262504;22;20281;-94
2024/04/28 02:38:57;;;;;;;6.25;4.25;;;;;;;9.07;77.35;99954.56;6262250;22;20007;-93
2024/04/28 02:41:27;;;;;;;5.90;4.03;;;;;;;9.25;77.18;99969.59;6261729;22;20006;-93
2024/04/28 02:43:52;;;;;;;5.95;3.75;;;;;;;9.12;77.01;99953.03;6264219;22;19999;-92
2024/04/28 02:49:05;;;;;;;9.73;4.80;;;;;;;8.98;77.30;99955.19;6316304;22;20002;-91
2024/04/28 02:51:34;;;;;;;12.77;4.22;;;;;;;9.07;77.60;99976.06;6302640;22;19994;-93
2024/04/28 02:54:02;;;;;;;10.15;4.03;;;;;;;9.06;77.73;99987.03;6302284;22;19999;-94
2024/04/28 02:56:27;;;;;;;7.88;3.80;;;;;;;9.07;77.76;99997.53;6261983;22;20062;-94
2024/04/28 02:58:53;;;;;;;6.28;3.53;;;;;;;9.01;77.27;99990.47;6261321;22;20007;-92
2024/04/28 03:01:19;;;;;;;6.93;4.03;;;;;;;9.00;77.35;100002.25;6260634;22;19999;-92
2024/04/28 03:03:44;;;;;;;6.07;3.92;;;;;;;9.13;76.98;100009.19;6262479;22;19999;-93
2024/04/28 03:06:10;;;;;;;7.45;4.00;;;;;;;9.12;76.65;100012.94;6260501;22;20007;-93
2024/04/28 03:08:36;;;;;;;4.07;3.15;;;;;;;9.16;75.97;100013.25;6251001;22;20000;-94
2024/04/28 03:11:03;;;;;;;10.02;4.03;;;;;;;9.17;76.37;100020.25;6333137;22;20040;-94
2024/04/28 03:13:28;;;;;;;7.97;4.35;;;;;;;9.05;76.50;100013.09;6254382;22;20000;-94
2024/04/28 03:15:54;;;;;;;7.22;4.78;;;;;;;9.07;76.55;100018.22;6253434;22;20071;-93
2024/04/28 03:18:20;;;;;;;8.63;5.53;;;;;;;8.96;76.44;100002.97;6253182;22;19996;-94
2024/04/28 03:20:45;;;;;;;10.35;5.78;;;;;;;9.12;76.45;100014.81;6252784;22;20016;-96
2024/04/28 03:23:11;;;;;;;9.88;4.63;;;;;;;8.99;76.95;100008.69;6254063;22;20064;-92
2024/04/28 03:25:39;;;;;;;8.82;5.38;;;;;;;8.88;77.08;100007.69;6253972;22;20127;-95
2024/04/28 03:28:05;;;;;;;9.70;5.20;;;;;;;8.95;77.06;100022.84;6254383;22;20008;-95
2024/04/28 03:30:31;;;;;;;12.32;5.85;;;;;;;8.86;77.13;100022.41;6253869;22;20016;-92
2024/04/28 03:32:57;;;;;;;11.80;5.32;;;;;;;8.77;76.92;100013.91;6254529;22;19997;-92
2024/04/28 03:35:23;;;;;;;8.65;5.20;;;;;;;8.86;77.03;100033.13;6253828;22;19999;-92
2024/04/28 03:37:48;;;;;;;8.55;5.28;;;;;;;8.90;76.96;100042.34;6254403;22;19992;-94
2024/04/28 03:40:14;;;;;;;8.55;5.30;;;;;;;8.90;77.14;100031.59;6253831;22;19992;-94
2024/04/28 03:42:40;;;;;;;13.40;5.47;;;;;;;8.76;76.84;100012.31;6253742;22;20381;-93
2024/04/28 03:45:05;;;;;;;9.73;5.57;;;;;;;8.77;77.02;100024.66;6253923;22;20008;-95
2024/04/28 03:47:32;;;;;;;10.65;6.18;;;;;;;8.85;77.65;100042.25;6331933;22;19994;-93
2024/04/28 03:49:57;;;;;;;12.35;6.35;;;;;;;9.03;77.39;100054.69;6252268;22;19992;-94
2024/04/28 03:52:23;;;;;;;13.05;7.03;;;;;;;9.15;76.98;100042.00;6252588;22;19999;-93
2024/04/28 03:54:49;;;;;;;20.23;7.65;;;;;;;9.11;77.37;100032.81;6255942;22;20004;-93
2024/04/28 03:57:17;;;;;;;12.80;7.28;;;;;;;9.22;77.25;100052.59;6251813;22;19988;-93
2024/04/28 03:59:43;;;;;;;20.65;8.80;;;;;;;9.15;76.70;100043.84;6254213;22;20010;-94
2024/04/28 04:02:09;;;;;;;16.50;6.65;;;;;;;9.07;76.88;100037.84;6251259;22;19995;-93
2024/04/28 04:04:34;;;;;;;13.25;5.25;;;;;;;9.07;76.31;100045.09;6252397;22;20072;-93
2024/04/28 04:07:00;;;;;;;13.63;5.63;;;;;;;9.07;75.72;100059.31;6331034;22;20002;-94
2024/04/28 04:09:26;;;;;;;12.35;6.45;;;;;;;9.10;75.51;100053.47;6252164;22;20000;-95
2024/04/28 04:11:51;;;;;;;15.35;7.70;;;;;;;9.03;76.29;100057.38;6333451;22;20360;-92
2024/04/28 04:14:17;;;;;;;14.35;6.68;;;;;;;9.13;76.33;100073.69;6253760;22;19996;-92
2024/04/28 04:16:44;;;;;;;17.35;6.03;;;;;;;9.02;76.05;100053.84;6292232;22;20015;-94
2024/04/28 04:19:10;;;;;;;14.68;6.40;;;;;;;9.18;75.95;100048.75;6252474;22;20008;-93
2024/04/28 04:21:35;;;;;;;14.55;6.97;;;;;;;9.38;75.73;100072.47;6252738;22;19999;-96
2024/04/28 04:24:01;;;;;;;13.13;6.68;;;;;;;9.48;75.59;100068.09;6253279;22;20007;-93
2024/04/28 04:26:27;;;;;;;15.52;7.25;;;;;;;9.55;74.84;100070.63;6333048;22;19996;-93
2024/04/28 04:28:53;;;;;;;13.73;8.18;;;;;;;9.51;74.92;100062.22;6331938;22;19992;-93
2024/04/28 04:31:20;;;;;;;21.85;9.00;;;;;;;9.60;74.81;100064.50;6254384;22;19999;-94
2024/04/28 04:33:49;;;;;;;19.33;9.18;;;;;;;9.48;74.95;100043.06;6255029;22;19998;-95
2024/04/28 04:36:17;;;;;;;19.58;10.43;;;;;;;9.70;74.89;100070.03;6293640;22;19988;-93
2024/04/28 04:38:43;;;;;;;21.27;9.73;;;;;;;9.64;74.96;100053.00;6254498;22;19995;-93
2024/04/28 04:41:09;;;;;;;17.27;9.52;;;;;;;9.69;74.65;100050.41;6252546;22;20027;-94
2024/04/28 04:43:35;;;;;;;17.75;8.95;;;;;;;9.92;73.93;100056.66;6294883;22;19996;-94
2024/04/28 04:46:01;;;;;;;17.60;7.40;;;;;;;9.91;74.08;100047.75;6331677;22;20016;-93
2024/04/28 04:48:29;;;;;;;21.90;7.45;;;;;;;10.01;73.41;100054.34;6252652;22;20064;-93
2024/04/28 04:50:55;;;;;;;17.30;8.23;;;;;;;10.06;73.68;100049.03;6252954;22;19995;-94
2024/04/28 04:53:20;;;;;;;14.88;7.95;;;;;;;10.25;73.15;100065.69;6256881;22;20002;-94
2024/04/28 04:55:46;;;;;;;11.00;6.95;;;;;;;10.50;73.26;100097.56;6252711;22;19996;-92
2024/04/28 04:58:12;;;;;;;7.35;4.82;;;;;;;10.61;72.41;100087.75;6254650;22;20064;-95
2024/04/28 05:00:37;;;;;;;5.97;4.35;;;;;;;10.51;72.58;100083.84;6253465;22;20004;-94
2024/04/28 05:03:03;;;;;;;10.23;4.85;;;;;;;10.67;72.32;100071.38;6256075;22;19996;-93
2024/04/28 05:05:29;;;;;;;11.05;4.80;;;;;;;10.82;71.74;100084.19;6256103;22;19996;-94
2024/04/28 05:07:55;;;;;;;7.45;4.10;;;;;;;10.71;71.74;100071.69;6255040;22;20284;-94
2024/04/28 05:10:26;;;;;;;6.55;4.78;;;;;;;10.97;71.48;100107.81;6254768;22;20015;-95
2024/04/28 05:12:54;;;;;;;9.13;4.68;;;;;;;11.09;71.52;100110.38;6258346;22;19996;-94
2024/04/28 05:15:20;;;;;;;6.90;4.78;;;;;;;11.06;71.05;100106.31;6254112;22;19995;-95
2024/04/28 05:17:46;;;;;;;8.48;5.40;;;;;;;11.16;70.54;100088.59;6254675;22;20003;-96
2024/04/28 05:20:14;;;;;;;14.02;7.13;;;;;;;11.22;70.43;100088.38;6254269;22;19991;-93
2024/04/28 05:22:49;;;;;;;12.90;7.68;;;;;;;11.36;69.92;100115.75;6255837;22;19999;-96
2024/04/28 05:25:18;;;;;;;18.38;9.68;;;;;;;11.37;69.76;100086.91;6261843;22;19996;-96
2024/04/28 05:27:44;;;;;;;10.52;7.40;;;;;;;11.41;70.10;100118.47;6251886;22;20085;-95
2024/04/28 05:30:09;;;;;;;13.75;8.77;;;;;;;11.38;70.40;100094.75;6253457;22;20296;-93
2024/04/28 05:32:35;;;;;;;13.80;9.00;;;;;;;11.63;70.41;100104.13;6254422;22;20024;-93
2024/04/28 05:35:01;;;;;;;14.07;10.45;;;;;;;11.58;70.92;100080.63;6254749;22;19983;-95
2024/04/28 05:37:27;;;;;;;12.90;9.15;;;;;;;11.67;69.31;100095.25;6256049;22;20342;-94
2024/04/28 05:39:52;;;;;;;14.45;10.93;;;;;;;11.88;69.40;100098.09;6334757;22;20003;-93
2024/04/28 05:42:18;;;;;;;16.77;11.15;;;;;;;11.99;68.56;100091.72;6253609;22;20003;-94
2024/04/28 05:44:44;;;;;;;19.25;10.40;;;;;;;12.08;68.39;100098.28;6254556;22;19998;-94
2024/04/28 05:47:09;;;;;;;14.60;10.38;;;;;;;12.17;67.91;100114.00;6256015;22;19992;-94
2024/04/28 05:49:35;;;;;;;21.55;10.23;;;;;;;12.28;67.86;100097.56;6256147;22;19995;-95
2024/04/28 05:52:01;;;;;;;16.80;9.27;;;;;;;12.47;67.47;100108.75;6254408;22;19992;-94
2024/04/28 05:54:29;;;;;;;16.55;9.38;;;;;;;12.51;67.45;100130.63;6256328;22;20003;-94
2024/04/28 05:56:55;;;;;;;12.77;9.93;;;;;;;12.63;67.18;100122.34;6256482;22;19992;-95
2024/04/28 05:59:21;;;;;;;17.08;9.90;;;;;;;12.70;66.91;100112.09;6295268;22;19984;-96
2024/04/28 06:01:48;;;;;;;16.02;9.57;;;;;;;12.87;66.89;100128.91;6255450;22;20419;-94
2024/04/28 06:04:16;;;;;;;14.68;10.20;;;;;;;12.98;66.66;100135.16;6295587;22;20000;-94
2024/04/28 06:06:48;;;;;;;20.27;10.25;;;;;;;13.08;66.00;100115.47;6255669;22;20007;-94
2024/04/28 06:09:17;;;;;;;19.75;11.40;;;;;;;12.98;65.66;100107.31;6256270;22;20000;-96
2024/04/28 06:11:43;;;;;;;18.65;11.48;;;;;;;13.10;66.25;100111.41;6255412;22;20028;-95
2024/04/28 06:14:10;;;;;;;18.13;10.80;;;;;;;13.42;64.95;100126.63;6254471;22;19992;-96
2024/04/28 06:16:38;;;;;;;19.98;11.25;;;;;;;13.56;64.90;100131.53;6254653;22;19996;-95
2024/04/28 06:19:04;;;;;;;16.48;11.43;;;;;;;13.60;64.61;100129.91;6255702;22;19996;-95
2024/04/28 06:21:38;;;;;;;19.27;13.13;;;;;;;13.68;64.74;100115.84;6253770;22;19992;-94
2024/04/28 06:24:06;;;;;;;22.90;12.43;;;;;;;13.83;63.70;100123.16;6255639;22;19999;-93
2024/04/28 06:26:32;;;;;;;18.20;11.85;;;;;;;13.95;63.46;100129.91;6256892;22;20008;-94
2024/04/28 06:28:58;;;;;;;15.50;11.85;;;;;;;14.12;63.34;100137.72;6254923;22;19996;-94
2024/04/28 06:31:28;;;;;;;20.55;12.15;;;;;;;14.15;63.26;100131.78;6254813;22;20012;-93
2024/04/28 06:33:58;;;;;;;22.02;14.25;;;;;;;14.33;62.89;100148.53;6255379;22;20004;-96
2024/04/28 06:36:24;;;;;;;21.70;12.93;;;;;;;14.38;62.39;100132.28;6258912;22;19988;-95
2024/04/28 06:38:59;;;;;;;;;;;;;;;;;;;;;
2024/04/28 06:44:16;;;;;;;21.33;13.27;;;;;;;14.99;61.37;100136.69;6304306;22;19992;-95
2024/04/28 06:46:45;;;;;;;16.45;12.10;;;;;;;14.86;61.29;100115.63;6258530;22;19996;-95
2024/04/28 06:49:19;;;;;;;20.52;16.17;;;;;;;15.02;61.25;100106.28;6262376;22;20010;-95
2024/04/28 06:52:15;;;;;;;24.17;14.98;;;;;;;15.27;61.47;100118.06;6301128;22;19992;-95
2024/04/28 06:54:45;;;;;;;18.75;14.18;;;;;;;15.52;59.79;100133.38;6341124;22;19992;-95
2024/04/28 06:57:15;;;;;;;22.23;13.50;;;;;;;15.63;59.68;100120.56;6262796;22;20008;-94
2024/04/28 06:59:40;;;;;;;18.05;12.40;;;;;;;15.82;59.11;100131.56;6254180;22;20056;-94
2024/04/28 07:02:06;;;;;;;15.25;11.45;;;;;;;16.00;58.98;100128.13;6252824;22;20008;-93
2024/04/28 07:04:32;;;;;;;15.25;11.27;;;;;;;15.95;58.46;100103.72;6252550;22;19996;-94
2024/04/28 07:06:57;;;;;;;18.20;9.70;;;;;;;16.02;57.23;100100.66;6256060;22;19996;-93
2024/04/28 07:09:26;;;;;;;15.38;10.38;;;;;;;16.27;55.66;100110.47;6292278;22;20006;-94
2024/04/28 07:11:51;;;;;;;14.82;9.73;;;;;;;16.36;56.69;100101.41;6252868;22;19992;-95
2024/04/28 07:14:19;;;;;;;12.82;9.65;;;;;;;16.40;55.84;100117.16;6252519;22;19988;-95
2024/04/28 07:16:45;;;;;;;15.80;10.25;;;;;;;16.63;56.30;100132.63;6253382;22;20015;-95
2024/04/28 07:19:14;;;;;;;11.13;8.55;;;;;;;16.80;55.37;100129.44;6254472;22;19992;-95
2024/04/28 07:21:40;;;;;;;7.15;5.13;;;;;;;16.86;53.20;100120.13;6253427;22;20002;-92
2024/04/28 07:24:06;;;;;;;7.07;4.15;;;;;;;16.98;51.87;100121.63;6251780;22;20003;-96
2024/04/28 07:26:39;;;;;;;7.25;4.25;;;;;;;17.20;51.73;100130.00;6332193;22;19991;-95
2024/04/28 07:29:37;;;;;;;13.57;5.97;;;;;;;17.35;51.78;100134.44;6253248;22;20000;-93
2024/04/28 07:32:15;;;;;;;7.20;4.10;;;;;;;17.51;50.11;100135.81;6213666;22;19996;-95
2024/04/28 07:34:41;;;;;;;4.30;3.70;;;;;;;17.54;48.77;100127.06;6208414;22;20009;-94
2024/04/28 07:37:13;;;;;;;6.57;2.90;;;;;;;17.49;48.94;100116.25;6165519;22;19995;-95
2024/04/28 07:39:41;;;;;;;6.85;4.63;;;;;;;17.77;48.86;100138.94;6206847;22;19988;-96
2024/04/28 07:42:10;;;;;;;3.20;2.70;;;;;;;17.78;48.10;100126.13;6204726;22;19993;-95
2024/04/28 07:44:36;;;;;;;5.47;3.22;;;;;;;17.74;46.58;100123.22;6203912;22;20000;-95
2024/04/28 07:47:08;;;;;;;3.90;2.50;;;;;;;17.82;47.25;100124.44;6204664;22;19985;-94
2024/04/28 07:49:44;;;;;;;4.45;2.20;;;;;;;17.90;46.37;100142.84;6165668;22;20042;-96
2024/04/28 07:52:31;;;;;;;;;;;;;;;;;;;;;
2024/04/28 07:55:06;;;;;;;2.75;2.30;;;;;;;17.95;46.32;100148.22;6211637;22;20017;-95
2024/04/28 07:57:31;;;;;;;6.18;2.55;;;;;;;17.82;46.57;100140.78;6204075;22;19997;-96
2024/04/28 07:59:57;;;;;;;4.00;2.20;;;;;;;17.95;46.54;100131.88;6204547;22;20042;-94
2024/04/28 08:02:32;;;;;;;3.50;2.28;;;;;;;18.08;46.70;100130.28;6219787;22;19988;-95
2024/04/28 08:05:05;;;;;;;4.18;2.55;;;;;;;18.22;45.91;100140.41;6254945;22;20011;-94
2024/04/28 08:07:39;;;;;;;4.65;2.20;;;;;;;18.24;45.67;100139.00;6254976;22;19999;-96
2024/04/28 08:10:14;;;;;;;3.70;2.42;;;;;;;18.42;45.55;100137.28;6269251;22;20003;-96
2024/04/28 08:12:39;;;;;;;3.42;2.30;;;;;;;18.52;45.23;100139.03;6302422;22;19999;-96
2024/04/28 08:15:07;;;;;;;4.07;2.28;;;;;;;18.59;44.68;100131.22;6259059;22;19992;-96
2024/04/28 08:17:36;;;;;;;4.63;2.25;;;;;;;18.58;45.17;100133.16;6302188;22;20002;-93
2024/04/28 08:23:40;;;;;;;3.07;2.10;;;;;;;18.78;43.04;100153.81;6237794;22;19992;-96
2024/04/28 08:26:06;;;;;;;5.47;2.10;;;;;;;18.73;42.36;100150.34;6250203;22;20378;-96
2024/04/28 08:28:39;;;;;;;3.55;1.83;;;;;;;18.67;41.80;100137.91;6260723;22;20002;-96
2024/04/28 08:31:04;;;;;;;3.10;1.90;;;;;;;18.76;41.48;100147.00;6301330;22;20002;-96
2024/04/28 08:33:32;;;;;;;4.47;1.67;;;;;;;18.76;42.27;100152.47;6262937;22;19995;-95
2024/04/28 08:35:58;;;;;;;3.15;1.67;;;;;;;18.74;42.66;100139.13;6262328;22;19991;-96
2024/04/28 08:38:32;;;;;;;2.25;1.83;;;;;;;18.80;42.63;100131.69;6304648;22;19987;-95
2024/04/28 08:41:04;;;;;;;3.83;1.80;;;;;;;18.84;43.49;100135.38;6263911;22;20290;-96
2024/04/28 08:43:33;;;;;;;3.28;1.80;;;;;;;18.83;42.58;100149.34;6265375;22;20003;-96
2024/04/28 08:46:06;;;;;;;3.72;1.77;;;;;;;18.75;42.13;100153.56;6263711;22;20003;-96
2024/04/28 08:48:31;;;;;;;4.63;1.90;;;;;;;18.67;41.85;100155.06;6265564;22;20279;-96
2024/04/28 08:50:59;;;;;;;3.90;2.08;;;;;;;18.76;42.99;100145.09;6262709;22;19991;-96
2024/04/28 08:53:25;;;;;;;3.78;2.40;;;;;;;18.70;42.05;100143.56;6300855;22;20044;-96
2024/04/28 08:55:56;;;;;;;4.38;2.00;;;;;;;18.86;42.78;100154.19;6261806;22;19999;-95
2024/04/28 08:58:25;;;;;;;3.55;1.80;;;;;;;18.84;42.90;100143.56;6263357;22;20287;-96
2024/04/28 09:00:51;;;;;;;2.65;1.92;;;;;;;18.84;42.73;100157.22;6263999;22;20403;-94
2024/04/28 09:03:19;;;;;;;3.30;1.60;;;;;;;18.87;42.75;100145.69;6263895;22;20002;-95
2024/04/28 09:05:50;;;;;;;3.30;1.83;;;;;;;18.95;43.55;100136.00;6263369;22;20003;-95
2024/04/28 09:08:17;;;;;;;3.30;1.65;;;;;;;18.99;43.02;100137.00;6264369;22;20001;-96
2024/04/28 09:10:43;;;;;;;2.97;1.40;;;;;;;18.94;41.89;100128.91;6272028;22;20023;-96
2024/04/28 09:13:16;;;;;;;2.75;1.75;;;;;;;19.17;41.84;100135.22;6266107;22;20010;-95
2024/04/28 09:15:46;;;;;;;4.78;3.58;;;;;;;19.10;42.28;100111.09;6264508;22;19999;-96
2024/04/28 09:18:14;;;;;;;7.57;2.15;;;;;;;19.17;42.00;100127.03;6304655;22;20003;-96
2024/04/28 09:20:44;;;;;;;2.95;1.90;;;;;;;19.25;42.12;100117.31;6305919;22;20019;-95
2024/04/28 09:23:09;;;;;;;3.05;1.83;;;;;;;19.36;42.02;100119.53;6303916;22;19992;-95
2024/04/28 09:25:35;;;;;;;2.85;2.03;;;;;;;19.37;41.48;100120.31;6265113;22;20006;-94
2024/04/28 09:28:03;;;;;;;3.85;1.92;;;;;;;19.45;41.19;100108.66;6262903;22;20062;-94
2024/04/28 09:30:29;;;;;;;3.35;1.90;;;;;;;19.63;41.31;100103.31;6264804;22;19998;-95
2024/04/28 09:32:54;;;;;;;4.35;2.40;;;;;;;19.75;41.97;100118.03;6262058;22;19995;-95
2024/04/28 09:35:20;;;;;;;4.30;2.13;;;;;;;20.08;42.35;100128.69;6271113;22;20368;-95
2024/04/28 09:37:50;;;;;;;2.38;1.63;;;;;;;19.99;40.13;100120.44;6264453;22;20292;-94
2024/04/28 09:40:16;;;;;;;4.15;2.15;;;;;;;20.07;40.87;100116.16;6301722;22;20066;-93
2024/04/28 09:42:45;;;;;;;2.67;1.83;;;;;;;20.04;41.38;100121.44;6262737;22;20007;-95
2024/04/28 09:45:10;;;;;;;2.40;1.80;;;;;;;20.14;40.64;100127.44;6260724;22;20084;-95
2024/04/28 09:47:37;;;;;;;1.63;1.48;;;;;;;20.18;41.08;100135.84;6262031;22;20117;-96
2024/04/28 09:50:04;;;;;;;3.35;2.08;;;;;;;20.45;39.92;100126.63;6261304;22;20034;-96
2024/04/28 09:52:33;;;;;;;3.20;1.90;;;;;;;20.38;40.31;100115.34;6262321;22;20002;-96
2024/04/28 09:55:03;;;;;;;3.25;1.98;;;;;;;20.39;41.33;100119.66;6302109;22;20023;-95
2024/04/28 09:57:30;;;;;;;2.67;1.88;;;;;;;20.55;40.54;100109.91;6263142;22;20006;-96
2024/04/28 09:59:57;;;;;;;2.35;1.90;;;;;;;20.63;38.97;100119.31;6262037;22;20396;-95
2024/04/28 10:02:26;;;;;;;3.33;1.85;;;;;;;20.68;39.30;100118.34;6262148;22;20007;-96
2024/04/28 10:05:03;;;;;;;2.45;1.80;;;;;;;20.65;40.00;100110.75;6302229;22;20003;-96
2024/04/28 10:07:29;;;;;;;3.65;1.70;;;;;;;20.69;41.29;100131.72;6305298;22;20010;-95
2024/04/28 10:09:57;;;;;;;3.15;1.80;;;;;;;20.37;41.19;100100.84;6256548;22;20064;-96
2024/04/28 10:12:23;;;;;;;2.47;1.90;;;;;;;20.58;41.43;100116.72;6254506;22;20000;-96
2024/04/28 10:14:54;;;;;;;2.80;2.17;;;;;;;20.47;40.72;100088.81;6255627;22;20079;-96
2024/04/28 10:17:20;;;;;;;2.33;1.73;;;;;;;20.54;39.95;100105.59;6256641;22;19995;-96
2024/04/28 10:19:46;;;;;;;2.17;1.70;;;;;;;20.66;40.41;100101.44;6334337;22;20410;-96
2024/04/28 10:22:15;;;;;;;2.30;2.00;;;;;;;20.63;39.39;100091.94;6256688;22;20072;-95
2024/04/28 10:25:06;;;;;;;2.45;1.90;;;;;;;20.69;39.22;100084.38;6295240;22;20068;-94
2024/04/28 10:27:33;;;;;;;2.35;1.85;;;;;;;20.56;39.05;100091.56;6294406;22;20031;-94
2024/04/28 10:29:59;;;;;;;2.85;2.05;;;;;;;20.77;39.35;100091.81;6258771;22;19996;-93
2024/04/28 10:32:26;;;;;;;2.00;1.70;;;;;;;20.76;40.16;100092.94;6255237;22;20418;-94
2024/04/28 10:34:52;;;;;;;4.57;1.90;;;;;;;20.95;39.85;100109.06;6333528;22;20300;-96
2024/04/28 10:37:18;;;;;;;3.08;1.75;;;;;;;20.98;39.01;100086.53;6253509;22;19996;-94
2024/04/28 10:39:53;;;;;;;5.38;4.10;;;;;;;21.32;39.32;100091.22;6256844;22;20000;-96
2024/04/28 10:42:19;;;;;;;2.63;1.80;;;;;;;21.52;37.28;100083.47;6257993;22;19991;-96
2024/04/28 10:44:47;;;;;;;28.92;22.20;;;;;;;21.40;37.94;100082.19;6255397;22;19999;-96
2024/04/28 10:47:19;;;;;;;4.80;3.22;;;;;;;21.38;38.63;100089.91;6296079;22;20000;-95
2024/04/28 10:49:44;;;;;;;3.35;2.53;;;;;;;21.04;38.08;100076.22;6296087;22;20008;-95
2024/04/28 10:52:10;;;;;;;1.83;1.60;;;;;;;21.20;38.37;100091.84;6254695;22;19996;-95
2024/04/28 10:54:39;;;;;;;7.55;2.13;;;;;;;21.13;38.24;100083.31;6254519;22;20048;-95
2024/04/28 10:57:05;;;;;;;1.80;1.55;;;;;;;21.09;38.08;100076.06;6254765;22;20068;-96
2024/04/28 10:59:31;;;;;;;2.92;2.00;;;;;;;21.12;39.52;100059.00;6253239;22;20000;-95
2024/04/28 11:01:56;;;;;;;2.30;1.70;;;;;;;21.23;39.03;100063.03;6253649;22;19995;-96
2024/04/28 11:04:25;;;;;;;5.15;2.13;;;;;;;21.37;37.88;100071.88;6254495;22;20488;-96
2024/04/28 11:06:51;;;;;;;21.88;18.33;;;;;;;21.37;37.85;100074.63;6255844;22;19996;-96
2024/04/28 11:09:38;;;;;;;3.20;2.60;;;;;;;21.52;37.68;100087.03;6256081;22;20007;-96
2024/04/28 11:12:06;;;;;;;4.22;2.00;;;;;;;21.49;38.01;100051.25;6294884;22;19996;-96
2024/04/28 11:14:36;;;;;;;9.30;6.90;;;;;;;21.71;36.63;100048.31;6255019;22;19992;-96
2024/04/28 11:17:02;;;;;;;9.77;5.85;;;;;;;22.00;36.63;100057.75;6254528;22;20000;-93
2024/04/28 11:19:28;;;;;;;12.05;9.30;;;;;;;21.98;37.28;100062.75;6254616;22;20324;-95
2024/04/28 11:21:54;;;;;;;3.55;2.83;;;;;;;22.00;38.11;100071.44;6343479;22;19992;-96
2024/04/28 11:24:20;;;;;;;20.42;13.45;;;;;;;21.98;38.17;100076.47;6253930;22;20003;-96
2024/04/28 11:27:00;;;;;;;16.70;11.25;;;;;;;21.67;38.37;100058.31;6253584;22;20007;-95
2024/04/28 11:29:26;;;;;;;11.43;7.55;;;;;;;21.70;38.23;100056.84;6254373;22;19995;-95
2024/04/28 11:31:54;;;;;;;41.00;20.25;;;;;;;21.51;38.15;100074.47;6253373;22;19995;-96
2024/04/28 11:34:22;;;;;;;5.90;3.67;;;;;;;21.52;38.86;100081.56;6255301;22;19995;-95
2024/04/28 11:36:49;;;;;;;6.72;3.60;;;;;;;21.52;38.45;100078.00;6253016;22;20003;-95
2024/04/28 11:39:15;;;;;;;3.33;2.28;;;;;;;21.44;38.39;100065.13;6253183;22;20075;-96
2024/04/28 11:41:41;;;;;;;23.58;13.10;;;;;;;21.42;37.11;100038.06;6259988;22;20016;-96
2024/04/28 11:44:10;;;;;;;15.02;8.77;;;;;;;21.61;37.84;100050.59;6254774;22;20003;-96